| time (UTC) | temp F | wind direction | speed MPH | gust MPH | rain 1hr in | rain 24hr in | rain mn in | humidity % | barometer mb |
| 20260507231529 | 47 | 248 | 1.0 | 7.0 | 0.00 | 1.34 | 1.34 | 94 | 1002.0 |
| 20260507230026 | 47 | 199 | 2.0 | 8.0 | 0.00 | 1.34 | 1.34 | 94 | 1002.1 |
| 20260507224526 | 48 | 131 | 0.0 | 7.0 | 0.00 | 1.34 | 1.34 | 94 | 1002.1 |
| 20260507223026 | 48 | 143 | 4.0 | 8.0 | 0.00 | 1.34 | 1.34 | 94 | 1001.8 |
| 20260507221525 | 49 | 201 | 4.0 | 11.0 | 0.00 | 1.34 | 1.34 | 94 | 1001.9 |
| 20260507220024 | 49 | 198 | 4.0 | 11.0 | 0.00 | 1.34 | 1.34 | 94 | 1001.7 |
| 20260507214624 | 49 | 154 | 5.0 | 15.0 | 0.00 | 1.34 | 1.34 | 94 | 1002.0 |
| 20260507213022 | 51 | 153 | 7.0 | 21.0 | 0.00 | 1.34 | 1.34 | 94 | 1002.2 |
| 20260507211525 | 50 | 194 | 7.0 | 16.0 | 0.02 | 1.34 | 1.34 | 94 | 1001.9 |
| 20260507210018 | 50 | 167 | 4.0 | 15.0 | 0.06 | 1.34 | 1.34 | 94 | 1001.7 |
| 20260507204516 | 50 | 124 | 7.0 | 14.0 | 0.09 | 1.34 | 1.34 | 94 | 1001.2 |
| 20260507203014 | 50 | 165 | 4.0 | 10.0 | 0.16 | 1.34 | 1.34 | 94 | 1002.3 |
| 20260507201515 | 50 | 154 | 3.0 | 8.0 | 0.25 | 1.32 | 1.32 | 94 | 1003.1 |
| 20260507200008 | 50 | 174 | 4.0 | 8.0 | 0.36 | 1.28 | 1.28 | 94 | 1003.4 |
| 20260507194508 | 50 | 193 | 4.0 | 8.0 | 0.52 | 1.24 | 1.24 | 94 | 1003.4 |
| 20260507193005 | 49 | 204 | 3.0 | 8.0 | 0.61 | 1.17 | 1.17 | 94 | 1003.9 |
| 20260507191502 | 48 | 120 | 2.0 | 8.0 | 0.61 | 1.06 | 1.06 | 94 | 1004.4 |
| 20260507190101 | 48 | 214 | 1.0 | 10.0 | 0.66 | 0.91 | 0.91 | 94 | 1005.0 |
| 20260507184600 | 48 | 181 | 3.0 | 11.0 | 0.57 | 0.72 | 0.72 | 94 | 1004.9 |
| 20260507183100 | 47 | 144 | 4.0 | 11.0 | 0.45 | 0.56 | 0.56 | 94 | 1004.8 |
| 20260507181558 | 46 | 162 | 3.0 | 13.0 | 0.35 | 0.44 | 0.44 | 93 | 1004.6 |
| 20260507180106 | 47 | 205 | 7.0 | 17.0 | 0.16 | 0.24 | 0.24 | 93 | 1005.3 |
| 20260507174630 | 48 | 222 | 9.0 | 18.0 | 0.06 | 0.14 | 0.14 | 94 | 1004.3 |
| 20260507173056 | 48 | 167 | 6.0 | 24.0 | 0.04 | 0.13 | 0.13 | 93 | 1004.6 |
| 20260507171608 | 49 | 154 | 6.0 | 14.0 | 0.02 | 0.09 | 0.09 | 94 | 1005.0 |
| 20260507170051 | 49 | 234 | 8.0 | 15.0 | 0.05 | 0.09 | 0.09 | 93 | 1004.9 |
| 20260507164553 | 48 | 177 | 9.0 | 20.0 | 0.07 | 0.09 | 0.09 | 94 | 1005.4 |
| 20260507163047 | 47 | 189 | 6.0 | 15.0 | 0.07 | 0.09 | 0.09 | 93 | 1006.1 |
| 20260507161547 | 47 | 193 | 8.0 | 20.0 | 0.06 | 0.07 | 0.07 | 93 | 1006.5 |
| 20260507160108 | 47 | 192 | 7.0 | 15.0 | 0.02 | 0.04 | 0.04 | 93 | 1006.8 |
| 20260507154540 | 47 | 173 | 7.0 | 16.0 | 0.00 | 0.02 | 0.02 | 93 | 1007.1 |
| 20260507153038 | 47 | 154 | 7.0 | 19.0 | 0.00 | 0.02 | 0.02 | 93 | 1007.6 |
| 20260507151534 | 48 | 200 | 7.0 | 14.0 | 0.00 | 0.02 | 0.02 | 93 | 1008.2 |
| 20260507150037 | 48 | 156 | 7.0 | 22.0 | 0.00 | 0.02 | 0.02 | 93 | 1008.3 |
| 20260507144532 | 48 | 229 | 7.0 | 20.0 | 0.00 | 0.02 | 0.02 | 93 | 1008.4 |
| 20260507143031 | 48 | 203 | 5.0 | 18.0 | 0.00 | 0.02 | 0.02 | 94 | 1008.6 |
| 20260507141528 | 48 | 221 | 6.0 | 18.0 | 0.00 | 0.02 | 0.02 | 94 | 1009.1 |
| 20260507140037 | 48 | 169 | 7.0 | 22.0 | 0.00 | 0.02 | 0.02 | 94 | 1009.4 |
| 20260507134526 | 48 | 167 | 5.0 | 17.0 | 0.00 | 0.02 | 0.02 | 94 | 1009.5 |
| 20260507133025 | 48 | 231 | 6.0 | 13.0 | 0.00 | 0.02 | 0.02 | 94 | 1009.7 |
| 20260507131541 | 48 | 199 | 5.0 | 21.0 | 0.00 | 0.02 | 0.02 | 94 | 1010.0 |
| 20260507130022 | 48 | 184 | 9.0 | 23.0 | 0.00 | 0.02 | 0.02 | 94 | 1009.8 |
| 20260507124523 | 48 | 178 | 8.0 | 20.0 | 0.01 | 0.02 | 0.02 | 94 | 1009.9 |
| 20260507123026 | 49 | 196 | 9.0 | 24.0 | 0.01 | 0.02 | 0.02 | 94 | 1009.7 |
| 20260507121518 | 49 | 153 | 8.0 | 18.0 | 0.01 | 0.02 | 0.02 | 94 | 1009.9 |
| 20260507120026 | 48 | 229 | 6.0 | 17.0 | 0.01 | 0.02 | 0.02 | 94 | 1009.7 |
| 20260507114511 | 47 | 178 | 4.0 | 24.0 | 0.01 | 0.01 | 0.01 | 94 | 1010.3 |
| 20260507113008 | 47 | 165 | 7.0 | 22.0 | 0.01 | 0.01 | 0.01 | 94 | 1010.8 |
| 20260507111506 | 48 | 143 | 7.0 | 19.0 | 0.01 | 0.01 | 0.01 | 94 | 1010.8 |
| 20260507110003 | 47 | 181 | 6.0 | 18.0 | 0.01 | 0.01 | 0.01 | 94 | 1011.0 |
| 20260507104504 | 47 | 232 | 7.0 | 19.0 | 0.00 | 0.00 | 0.00 | 94 | 1010.7 |
| 20260507103100 | 46 | 186 | 6.0 | 16.0 | 0.00 | 0.00 | 0.00 | 94 | 1011.0 |
| 20260507101540 | 46 | 166 | 6.0 | 17.0 | 0.00 | 0.00 | 0.00 | 94 | 1011.6 |
| 20260507100051 | 46 | 150 | 4.0 | 14.0 | 0.00 | 0.00 | 0.00 | 94 | 1011.4 |
| 20260507094539 | 47 | 150 | 4.0 | 16.0 | 0.00 | 0.00 | 0.00 | 94 | 1011.6 |
| 20260507093036 | 47 | 145 | 4.0 | 16.0 | 0.00 | 0.00 | 0.00 | 94 | 1011.7 |
| 20260507091539 | 47 | 174 | 4.0 | 12.0 | 0.00 | 0.00 | 0.00 | 94 | 1011.5 |
| 20260507090030 | 47 | 194 | 5.0 | 12.0 | 0.00 | 0.00 | 0.00 | 94 | 1011.6 |
| 20260507084544 | 47 | 263 | 6.0 | 18.0 | 0.00 | 0.00 | 0.00 | 94 | 1011.9 |
| 20260507083026 | 46 | 171 | 4.0 | 11.0 | 0.00 | 0.00 | 0.00 | 94 | 1012.0 |
| 20260507081523 | 46 | 138 | 4.0 | 9.0 | 0.00 | 0.00 | 0.00 | 94 | 1012.2 |
| 20260507080021 | 46 | 211 | 2.0 | 7.0 | 0.00 | 0.00 | 0.00 | 93 | 1012.4 |
| 20260507074520 | 46 | 61 | 2.0 | 8.0 | 0.00 | 0.00 | 0.00 | 93 | 1012.4 |
| 20260507073022 | 46 | 149 | 3.0 | 7.0 | 0.00 | 0.00 | 0.00 | 93 | 1013.0 |
| 20260507071517 | 46 | 198 | 4.0 | 11.0 | 0.00 | 0.00 | 0.00 | 93 | 1013.1 |
| 20260507070018 | 46 | 209 | 4.0 | 13.0 | 0.00 | 0.00 | 0.00 | 93 | 1013.2 |
| 20260507064509 | 47 | 207 | 3.0 | 12.0 | 0.00 | 0.00 | 0.00 | 93 | 1013.5 |
| 20260507063010 | 47 | 187 | 4.0 | 9.0 | 0.00 | 0.00 | 0.00 | 93 | 1014.0 |
| 20260507061504 | 47 | 201 | 1.0 | 6.0 | 0.00 | 0.00 | 0.00 | 93 | 1014.1 |
| 20260507060001 | 46 | 167 | 2.0 | 6.0 | 0.00 | 0.00 | 0.00 | 93 | 1014.2 |
| 20260507054559 | 46 | 182 | 1.0 | 4.0 | 0.00 | 0.00 | 0.00 | 93 | 1014.4 |
| 20260507053058 | 46 | 165 | 0.0 | 5.0 | 0.00 | 0.00 | 0.00 | 93 | 1014.9 |
| 20260507051600 | 46 | 150 | 2.0 | 5.0 | 0.00 | 0.00 | 0.00 | 93 | 1015.1 |
| 20260507050105 | 46 | 192 | 1.0 | 3.0 | 0.00 | 0.00 | 0.00 | 93 | 1015.5 |
| 20260507044553 | 46 | 171 | 1.0 | 5.0 | 0.00 | 0.00 | 0.00 | 93 | 1016.1 |
| 20260507043046 | 46 | 190 | 0.0 | 3.0 | 0.00 | 0.00 | 0.00 | 93 | 1016.2 |
| 20260507041545 | 46 | 212 | 1.0 | 3.0 | 0.00 | 0.00 | 0.00 | 93 | 1016.5 |
| 20260507040042 | 46 | 168 | 0.0 | 2.0 | 0.00 | 0.00 | 0.00 | 92 | 1016.7 |
| 20260507034542 | 46 | 187 | 0.0 | 4.0 | 0.00 | 0.00 | 0.00 | 92 | 1016.9 |
| 20260507033042 | 46 | 178 | 1.0 | 4.0 | 0.00 | 0.00 | 0.00 | 92 | 1017.1 |
| 20260507031536 | 46 | 182 | 1.0 | 4.0 | 0.00 | 0.00 | 0.00 | 92 | 1017.4 |
| 20260507030037 | 46 | 163 | 1.0 | 5.0 | 0.00 | 0.00 | 0.00 | 92 | 1017.6 |
| 20260507024542 | 46 | 186 | 1.0 | 5.0 | 0.00 | 0.00 | 0.00 | 92 | 1017.8 |
| 20260507023032 | 46 | 173 | 2.0 | 5.0 | 0.00 | 0.00 | 0.00 | 91 | 1018.1 |
| 20260507021545 | 47 | 187 | 2.0 | 8.0 | 0.00 | 0.00 | 0.00 | 91 | 1018.2 |
| 20260507020030 | 47 | 136 | 2.0 | 4.0 | 0.00 | 0.00 | 0.00 | 91 | 1018.1 |
| 20260507014528 | 48 | 206 | 4.0 | 7.0 | 0.00 | 0.00 | 0.00 | 91 | 1018.2 |
| 20260507013034 | 48 | 213 | 2.0 | 7.0 | 0.00 | 0.00 | 0.00 | 91 | 1018.3 |
| 20260507011531 | 48 | 183 | 3.0 | 7.0 | 0.00 | 0.00 | 0.00 | 91 | 1018.4 |
| 20260507010037 | 48 | 152 | 3.0 | 8.0 | 0.00 | 0.00 | 0.00 | 91 | 1018.7 |
| 20260507004525 | 48 | 142 | 2.0 | 6.0 | 0.00 | 0.00 | 0.00 | 91 | 1018.6 |
| 20260507003024 | 48 | 185 | 3.0 | 10.0 | 0.00 | 0.00 | 0.00 | 91 | 1018.5 |
| 20260507001523 | 47 | 157 | 2.0 | 6.0 | 0.00 | 0.00 | 0.00 | 91 | 1018.5 |
| 20260507000023 | 47 | 202 | 1.0 | 6.0 | 0.00 | 0.00 | 0.00 | 90 | 1018.5 |
| 20260506234521 | 47 | 166 | 2.0 | 10.0 | 0.00 | 0.00 | 0.00 | 90 | 1018.2 |
| 20260506233020 | 47 | 193 | 5.0 | 11.0 | 0.00 | 0.00 | 0.00 | 89 | 1018.0 |